Time;durP1;ratioP1;P1;durP2;ratioP2;P2;SDS_P1;SDS_P2;PMS_P1;PMS_P2;Temp;Humidity;BMP_temperature;BMP_pressure;BME280_temperature;BME280_humidity;BME280_pressure;Samples;Min_cycle;Max_cycle;Signal;HPM_P1;HPM_P2
2022/10/18 00:01:03;;;;;;;14.60;7.50;;;11.50;66.50;;;;;;4966442;28;45794;-83
2022/10/18 00:03:28;;;;;;;16.13;7.90;;;11.50;66.70;;;;;;4977501;28;46713;-84
2022/10/18 00:05:54;;;;;;;13.73;7.67;;;11.40;66.80;;;;;;4974990;28;46350;-85
2022/10/18 00:08:20;;;;;;;12.40;7.93;;;11.60;66.30;;;;;;4989714;28;46373;-85
2022/10/18 00:10:46;;;;;;;18.23;7.07;;;11.60;68.40;;;;;;4966294;28;46283;-84
2022/10/18 00:13:12;;;;;;;19.50;6.27;;;11.60;67.20;;;;;;4983616;28;46452;-84
2022/10/18 00:15:37;;;;;;;12.17;5.40;;;11.60;67.30;;;;;;4966833;28;46450;-84
2022/10/18 00:18:03;;;;;;;10.87;4.63;;;11.30;67.00;;;;;;4966203;28;49283;-84
2022/10/18 00:20:29;;;;;;;14.23;4.77;;;11.20;68.20;;;;;;4966977;28;46358;-83
2022/10/18 00:22:55;;;;;;;11.87;5.63;;;11.00;68.30;;;;;;4982844;28;46610;-83
2022/10/18 00:25:21;;;;;;;9.50;5.20;;;10.90;68.40;;;;;;4967499;28;46722;-83
2022/10/18 00:27:47;;;;;;;14.13;6.27;;;10.90;68.50;;;;;;4964212;28;48030;-84
2022/10/18 00:30:12;;;;;;;16.67;6.53;;;10.90;68.50;;;;;;4967893;28;46520;-84
2022/10/18 00:32:40;;;;;;;13.70;5.27;;;10.90;68.30;;;;;;4971046;28;47370;-85
2022/10/18 00:35:07;;;;;;;11.20;6.10;;;10.90;68.20;;;;;;4979270;28;46456;-85
2022/10/18 00:37:33;;;;;;;8.80;5.67;;;10.80;67.00;;;;;;4996395;28;46709;-84
2022/10/18 00:39:59;;;;;;;14.43;6.40;;;10.80;68.00;;;;;;5001573;28;46398;-85
2022/10/18 00:42:29;;;;;;;13.50;5.80;;;10.80;67.90;;;;;;4981155;28;46748;-84
2022/10/18 00:45:03;;;;;;;12.80;6.37;;;10.90;67.80;;;;;;4996333;28;46600;-85
2022/10/18 00:47:30;;;;;;;9.57;5.47;;;10.90;66.70;;;;;;4981773;28;46539;-85
2022/10/18 00:49:59;;;;;;;14.73;7.13;;;10.90;67.60;;;;;;4995909;28;46238;-84
2022/10/18 00:52:32;;;;;;;12.97;6.97;;;11.00;67.50;;;;;;4973314;28;46377;-83
2022/10/18 00:54:58;;;;;;;18.80;7.47;;;11.10;67.50;;;;;;4969666;28;45932;-83
2022/10/18 00:57:25;;;;;;;16.07;7.40;;;11.20;66.60;;;;;;4965968;28;48335;-84
2022/10/18 00:59:51;;;;;;;14.00;7.10;;;11.20;67.60;;;;;;4966433;28;46396;-83
2022/10/18 01:02:17;;;;;;;15.67;6.10;;;11.20;67.50;;;;;;4968258;28;46465;-83
2022/10/18 01:04:45;;;;;;;11.50;5.73;;;11.10;67.60;;;;;;4962850;28;47794;-83
2022/10/18 01:07:13;;;;;;;8.90;5.07;;;10.90;67.30;;;;;;4965473;28;48167;-83
2022/10/18 01:09:49;;;;;;;10.63;5.50;;;14.00;71.30;;;;;;4961542;28;46835;-84
2022/10/18 01:12:47;;;;;;;11.17;5.67;;;10.80;68.60;;;;;;4968619;28;45829;-85
2022/10/18 01:15:25;;;;;;;7.50;5.37;;;10.70;68.50;;;;;;4997024;28;46593;-84
2022/10/18 01:18:16;;;;;;;11.73;5.60;;;10.70;67.60;;;;;;4979756;28;46662;-84
2022/10/18 01:21:09;;;;;;;14.00;6.50;;;10.70;68.50;;;;;;4979824;28;46509;-85
2022/10/18 01:23:34;;;;;;;13.03;6.10;;;10.70;68.40;;;;;;4997896;28;46346;-83
2022/10/18 01:26:16;;;;;;;18.57;6.27;;;10.70;68.10;;;;;;4996646;28;45860;-86
2022/10/18 01:29:12;;;;;;;15.97;7.60;;;10.80;67.20;;;;;;4994032;28;46681;-85
2022/10/18 01:31:46;;;;;;;12.77;6.97;;;10.80;68.00;;;;;;4996698;28;46505;-85
2022/10/18 01:34:15;;;;;;;12.47;5.87;;;10.80;68.00;;;;;;4980869;28;45936;-83
2022/10/18 01:36:45;;;;;;;12.13;6.40;;;10.80;67.00;;;;;;4982547;28;45973;-85
2022/10/18 01:39:15;;;;;;;21.13;6.23;;;10.80;67.90;;;;;;4991416;28;48411;-83
2022/10/18 01:41:43;;;;;;;10.73;6.30;;;10.80;68.00;;;;;;4982020;28;45818;-85
2022/10/18 01:44:14;;;;;;;17.47;7.07;;;10.80;67.90;;;;;;4982448;28;46297;-86
2022/10/18 01:46:41;;;;;;;14.03;6.30;;;10.80;67.10;;;;;;4999640;28;46390;-85
2022/10/18 01:49:06;;;;;;;13.37;6.60;;;10.80;68.10;;;;;;4999668;28;47420;-84
2022/10/18 01:51:33;;;;;;;19.47;7.10;;;10.80;68.10;;;;;;4986859;28;46710;-84
2022/10/18 01:53:59;;;;;;;12.63;6.47;;;10.80;68.20;;;;;;4966753;28;46687;-86
2022/10/18 01:56:34;;;;;;;17.53;6.90;;;10.80;67.30;;;;;;4986707;28;46475;-84
2022/10/18 01:59:16;;;;;;;12.40;7.03;;;10.90;68.50;;;;;;4984164;28;47207;-83
2022/10/18 02:02:14;;;;;;;15.27;6.50;;;10.90;68.60;;;;;;4967288;28;46741;-84
2022/10/18 02:04:49;;;;;;;22.87;7.73;;;10.90;68.60;;;;;;4964950;28;46305;-84
2022/10/18 02:07:20;;;;;;;16.83;7.50;;;11.00;68.60;;;;;;4971827;28;46590;-84
2022/10/18 02:09:55;;;;;;;16.00;8.43;;;11.00;68.50;;;;;;4968094;28;48484;-83
2022/10/18 02:12:22;;;;;;;12.83;6.60;;;11.00;68.30;;;;;;4979829;28;46474;-83
2022/10/18 02:14:49;;;;;;;9.33;6.07;;;11.00;68.10;;;;;;4981728;28;46354;-84
2022/10/18 02:17:15;;;;;;;9.13;5.67;;;11.00;68.10;;;;;;4980370;28;46640;-84
2022/10/18 02:19:44;;;;;;;11.10;5.83;;;10.90;68.20;;;;;;4981837;28;47576;-83
2022/10/18 02:22:11;;;;;;;10.40;5.50;;;10.90;68.10;;;;;;4964878;28;46577;-84
2022/10/18 02:24:41;;;;;;;11.00;5.83;;;10.90;68.10;;;;;;4981275;28;45849;-83
2022/10/18 02:27:08;;;;;;;10.13;4.87;;;11.00;67.00;;;;;;4969286;28;45904;-83
2022/10/18 02:29:34;;;;;;;14.33;5.83;;;11.00;68.00;;;;;;4968748;28;48592;-83
2022/10/18 02:32:24;;;;;;;16.10;5.77;;;11.00;67.90;;;;;;4982748;28;46006;-83
2022/10/18 02:35:03;;;;;;;9.80;6.07;;;11.00;67.80;;;;;;4971730;28;45910;-83
2022/10/18 02:37:34;;;;;;;8.30;5.23;;;11.00;67.80;;;;;;4984448;28;46553;-83
2022/10/18 02:40:00;;;;;;;11.00;5.70;;;11.10;67.70;;;;;;4969350;28;47915;-83
2022/10/18 02:42:33;;;;;;;13.47;5.93;;;11.10;67.60;;;;;;4985020;28;45832;-83
2022/10/18 02:44:58;;;;;;;12.80;6.10;;;11.10;67.60;;;;;;4968192;28;46605;-83
2022/10/18 02:47:24;;;;;;;9.30;5.63;;;11.20;66.70;;;;;;4969442;28;47264;-84
2022/10/18 02:49:49;;;;;;;15.90;6.20;;;11.20;67.80;;;;;;4967578;28;54364;-83
2022/10/18 02:52:15;;;;;;;8.57;5.87;;;11.20;67.60;;;;;;4966846;28;51260;-83
2022/10/18 02:54:40;;;;;;;10.03;5.67;;;11.20;67.60;;;;;;4967591;28;46354;-83
2022/10/18 02:57:06;;;;;;;16.03;5.60;;;11.20;67.50;;;;;;4971325;28;46636;-84
2022/10/18 02:59:32;;;;;;;18.83;5.97;;;11.20;67.60;;;;;;4969736;28;48007;-84
2022/10/18 03:01:57;;;;;;;12.40;5.70;;;11.20;66.60;;;;;;4985845;28;45815;-84
2022/10/18 03:04:23;;;;;;;11.63;5.50;;;11.10;67.70;;;;;;4969091;28;50903;-83
2022/10/18 03:06:48;;;;;;;12.60;5.67;;;11.10;67.10;;;;;;4969598;28;46472;-82
2022/10/18 03:09:14;;;;;;;16.70;6.67;;;11.10;68.20;;;;;;4958549;28;49073;-84
2022/10/18 03:11:40;;;;;;;13.83;6.27;;;11.00;68.20;;;;;;4989287;28;46492;-83
2022/10/18 03:14:05;;;;;;;9.67;6.67;;;11.10;68.20;;;;;;4986689;28;45949;-83
2022/10/18 03:16:31;;;;;;;12.87;5.60;;;11.10;67.30;;;;;;4973515;28;46370;-83
2022/10/18 03:18:56;;;;;;;10.40;5.80;;;11.10;67.20;;;;;;4986911;28;46725;-83
2022/10/18 03:21:22;;;;;;;10.57;6.17;;;11.00;68.20;;;;;;4970119;28;46585;-83
2022/10/18 03:23:47;;;;;;;13.80;5.77;;;11.10;68.20;;;;;;4970306;28;49319;-83
2022/10/18 03:26:13;;;;;;;13.30;6.33;;;11.30;68.20;;;;;;4968744;28;46365;-83
2022/10/18 03:28:38;;;;;;;12.50;6.33;;;11.20;67.10;;;;;;4970176;28;48204;-84
2022/10/18 03:31:04;;;;;;;11.47;6.47;;;11.20;68.40;;;;;;4972704;28;46541;-83
2022/10/18 03:33:31;;;;;;;12.10;5.97;;;11.10;68.70;;;;;;4967085;28;46406;-82
2022/10/18 03:35:56;;;;;;;20.40;6.40;;;11.10;68.70;;;;;;4965728;28;46414;-83
2022/10/18 03:38:22;;;;;;;14.43;5.93;;;11.10;67.80;;;;;;4984206;28;50427;-82
2022/10/18 03:40:47;;;;;;;13.00;6.87;;;11.10;68.90;;;;;;4964093;28;46436;-84
2022/10/18 03:43:13;;;;;;;11.00;6.60;;;11.10;68.90;;;;;;4982888;28;46470;-84
2022/10/18 03:45:39;;;;;;;11.03;6.63;;;11.20;68.90;;;;;;4970002;28;46432;-85
2022/10/18 03:48:05;;;;;;;13.73;7.30;;;11.30;68.80;;;;;;4984166;28;48249;-84
2022/10/18 03:50:30;;;;;;;23.30;11.93;;;11.40;68.30;;;;;;4983460;28;46916;-85
2022/10/18 03:52:56;;;;;;;18.00;9.20;;;11.60;67.90;;;;;;4958492;28;46562;-85
2022/10/18 03:55:21;;;;;;;13.37;8.30;;;11.70;66.50;;;;;;4968774;28;47561;-86
2022/10/18 03:57:47;;;;;;;15.37;8.23;;;11.90;66.20;;;;;;4983511;28;46410;-85
2022/10/18 04:00:13;;;;;;;49.73;23.43;;;12.00;67.10;;;;;;4965487;28;46360;-85
2022/10/18 04:02:39;;;;;;;16.90;8.37;;;12.10;66.60;;;;;;4983817;28;46724;-85
2022/10/18 04:05:06;;;;;;;17.80;7.67;;;12.30;66.50;;;;;;4961571;28;47207;-85
2022/10/18 04:07:33;;;;;;;16.03;7.50;;;12.30;66.60;;;;;;4966689;28;48378;-86
2022/10/18 04:09:58;;;;;;;12.43;7.50;;;12.40;66.60;;;;;;4982364;28;46902;-85
2022/10/18 04:12:24;;;;;;;10.40;6.97;;;12.50;66.70;;;;;;4966947;28;46501;-85
2022/10/18 04:14:50;;;;;;;12.80;6.20;;;12.50;66.70;;;;;;4983297;28;46393;-86
2022/10/18 04:17:15;;;;;;;20.03;6.50;;;12.60;65.80;;;;;;4974135;28;49033;-85
2022/10/18 04:19:41;;;;;;;12.13;6.50;;;12.70;67.00;;;;;;4988021;28;45817;-85
2022/10/18 04:22:07;;;;;;;10.70;6.20;;;12.70;66.90;;;;;;4970953;28;46381;-85
2022/10/18 04:24:32;;;;;;;7.87;5.40;;;12.70;66.90;;;;;;4984699;28;46582;-86
2022/10/18 04:26:58;;;;;;;33.00;16.60;;;12.80;65.90;;;;;;4964258;28;53313;-85
2022/10/18 04:29:23;;;;;;;19.17;7.70;;;12.80;67.00;;;;;;4984506;28;46450;-85
2022/10/18 04:31:49;;;;;;;11.93;7.23;;;12.80;67.00;;;;;;4982565;28;46374;-85
2022/10/18 04:34:15;;;;;;;13.90;6.50;;;12.90;67.10;;;;;;4980494;28;45910;-85
2022/10/18 04:36:40;;;;;;;7.40;5.40;;;12.90;67.00;;;;;;4983663;28;46360;-85
2022/10/18 04:39:06;;;;;;;9.60;6.17;;;12.90;67.10;;;;;;4983705;28;46370;-85
2022/10/18 04:41:31;;;;;;;12.10;6.37;;;12.80;67.00;;;;;;4983806;28;45820;-86
2022/10/18 04:43:57;;;;;;;9.80;6.30;;;12.80;67.00;;;;;;4967162;28;46407;-87
2022/10/18 04:46:22;;;;;;;8.93;6.40;;;12.80;67.00;;;;;;4966950;28;48264;-86
2022/10/18 04:48:48;;;;;;;10.27;6.43;;;12.90;67.10;;;;;;4968036;28;46443;-85
2022/10/18 04:51:13;;;;;;;15.10;6.50;;;12.90;67.10;;;;;;4969901;28;46270;-86
2022/10/18 04:53:39;;;;;;;18.83;6.40;;;13.00;67.20;;;;;;4984633;28;46070;-86
2022/10/18 04:56:05;;;;;;;11.30;7.10;;;13.00;67.10;;;;;;4986608;28;47523;-87
2022/10/18 04:58:31;;;;;;;10.43;6.03;;;13.10;67.30;;;;;;4965473;28;46519;-86
2022/10/18 05:00:56;;;;;;;9.90;5.90;;;13.10;67.30;;;;;;4971499;28;46449;-86
2022/10/18 05:03:22;;;;;;;12.63;6.17;;;13.20;67.00;;;;;;4968289;28;46689;-86
2022/10/18 05:05:48;;;;;;;14.83;6.10;;;13.30;66.60;;;;;;4985539;28;46380;-86
2022/10/18 05:08:13;;;;;;;9.97;5.90;;;13.30;66.40;;;;;;4967198;28;46452;-85
2022/10/18 05:10:39;;;;;;;14.60;5.70;;;13.30;66.40;;;;;;4982721;28;46373;-85
2022/10/18 05:13:04;;;;;;;13.80;5.90;;;13.30;66.40;;;;;;4968056;28;46560;-86
2022/10/18 05:15:30;;;;;;;10.93;5.13;;;13.40;66.40;;;;;;4965520;28;48358;-85
2022/10/18 05:17:55;;;;;;;10.73;5.77;;;13.40;66.40;;;;;;4980280;28;55302;-85
2022/10/18 05:20:21;;;;;;;13.03;5.30;;;13.40;66.30;;;;;;4982785;28;46500;-86
2022/10/18 05:22:46;;;;;;;12.87;5.60;;;13.40;66.40;;;;;;4982445;28;46402;-85
2022/10/18 05:25:12;;;;;;;11.57;7.23;;;13.40;66.40;;;;;;4982039;28;47614;-85
2022/10/18 05:27:37;;;;;;;11.13;6.90;;;13.40;66.40;;;;;;4988485;28;46546;-85
2022/10/18 05:30:04;;;;;;;8.97;6.03;;;13.40;66.50;;;;;;4987334;28;48721;-85
2022/10/18 05:32:29;;;;;;;11.13;5.67;;;13.40;66.40;;;;;;4986775;28;46375;-85
2022/10/18 05:34:55;;;;;;;10.43;5.93;;;13.40;66.70;;;;;;4970445;28;48456;-86
2022/10/18 05:37:20;;;;;;;9.93;5.17;;;13.40;67.00;;;;;;4970001;28;46711;-86
2022/10/18 05:39:46;;;;;;;9.43;6.00;;;13.40;67.60;;;;;;4986310;28;46366;-86
2022/10/18 05:42:12;;;;;;;16.00;5.90;;;13.30;67.50;;;;;;4986254;28;46290;-85
2022/10/18 05:44:37;;;;;;;9.80;5.73;;;13.40;67.60;;;;;;4984743;28;47621;-86
2022/10/18 05:47:03;;;;;;;10.50;5.83;;;13.40;67.60;;;;;;4985441;28;46370;-85
2022/10/18 05:49:29;;;;;;;9.30;6.00;;;13.50;67.60;;;;;;4967316;28;46462;-86
2022/10/18 05:51:54;;;;;;;11.60;7.07;;;13.50;67.10;;;;;;4969053;28;46402;-85
2022/10/18 05:54:20;;;;;;;8.20;5.90;;;13.50;67.20;;;;;;4969288;28;48185;-85
2022/10/18 05:56:45;;;;;;;7.10;5.43;;;13.60;66.10;;;;;;4969028;28;46453;-85
2022/10/18 05:59:11;;;;;;;23.33;6.00;;;13.60;66.90;;;;;;4986618;28;46532;-85
2022/10/18 06:01:41;;;;;;;9.77;5.50;;;13.60;67.20;;;;;;4970369;28;46493;-85
2022/10/18 06:04:08;;;;;;;10.73;5.77;;;13.60;67.20;;;;;;4960406;28;48358;-86
2022/10/18 06:06:35;;;;;;;9.90;5.80;;;13.60;66.70;;;;;;4968344;28;46379;-86
2022/10/18 06:09:02;;;;;;;14.07;5.80;;;13.60;67.80;;;;;;4987775;28;46356;-86
2022/10/18 06:11:28;;;;;;;10.20;5.67;;;13.60;67.70;;;;;;4987301;28;45798;-85
2022/10/18 06:13:56;;;;;;;9.80;5.47;;;13.60;67.40;;;;;;4969741;28;48223;-84
2022/10/18 06:16:23;;;;;;;6.93;4.50;;;15.80;69.70;;;;;;4967432;28;46089;-84
2022/10/18 06:18:50;;;;;;;5.60;4.10;;;13.60;67.70;;;;;;4967624;28;46343;-85
2022/10/18 06:21:16;;;;;;;10.47;4.73;;;13.50;67.60;;;;;;4966119;28;46370;-86
2022/10/18 06:23:42;;;;;;;9.87;4.83;;;13.50;67.60;;;;;;4994210;28;48743;-84
2022/10/18 06:26:10;;;;;;;7.37;4.70;;;13.50;66.60;;;;;;4996184;28;45877;-86
2022/10/18 06:28:37;;;;;;;11.07;5.33;;;13.50;66.60;;;;;;4972796;28;46464;-86
2022/10/18 06:31:04;;;;;;;15.87;4.00;;;13.60;67.70;;;;;;4970352;28;45991;-86
2022/10/18 06:33:30;;;;;;;8.00;4.03;;;13.50;67.60;;;;;;4985426;28;46726;-86
2022/10/18 06:35:58;;;;;;;9.87;4.40;;;13.60;67.70;;;;;;4987507;28;46238;-86
2022/10/18 06:38:24;;;;;;;14.20;5.30;;;13.70;66.30;;;;;;4991285;28;45796;-84
2022/10/18 06:40:49;;;;;;;12.80;5.60;;;13.80;67.30;;;;;;4973259;28;46462;-86
2022/10/18 06:43:15;;;;;;;7.40;4.63;;;13.90;67.00;;;;;;4972110;28;47933;-86
2022/10/18 06:45:41;;;;;;;10.50;4.80;;;14.00;66.60;;;;;;4989490;28;46350;-87
2022/10/18 06:48:06;;;;;;;8.40;4.77;;;14.20;66.30;;;;;;4963494;28;46437;-86
2022/10/18 06:50:32;;;;;;;10.60;4.50;;;14.40;65.90;;;;;;4966898;28;46387;-86
2022/10/18 06:52:57;;;;;;;14.53;5.00;;;14.60;65.30;;;;;;4966282;28;49824;-85
2022/10/18 06:55:23;;;;;;;8.13;5.13;;;14.90;64.80;;;;;;4986290;28;49028;-86
2022/10/18 06:57:48;;;;;;;8.33;4.60;;;15.10;64.20;;;;;;4992792;28;45838;-86
2022/10/18 07:00:14;;;;;;;9.40;3.70;;;15.30;64.00;;;;;;4981710;28;46465;-85
2022/10/18 07:02:40;;;;;;;7.83;4.30;;;15.40;63.70;;;;;;4983370;28;46393;-84
2022/10/18 07:05:06;;;;;;;7.20;4.70;;;15.60;63.60;;;;;;4958459;28;46407;-86
2022/10/18 07:07:32;;;;;;;10.50;4.90;;;15.70;63.40;;;;;;4981242;28;46453;-86
2022/10/18 07:09:58;;;;;;;10.33;4.70;;;15.90;63.40;;;;;;4967187;28;46563;-85
2022/10/18 07:12:23;;;;;;;9.10;4.13;;;16.00;63.20;;;;;;4984475;28;46427;-86
2022/10/18 07:14:49;;;;;;;11.63;4.03;;;16.20;63.00;;;;;;4984907;28;46415;-86
2022/10/18 07:17:14;;;;;;;13.30;4.73;;;16.30;62.60;;;;;;4983608;28;46411;-86
2022/10/18 07:19:40;;;;;;;6.57;3.93;;;16.50;62.20;;;;;;4965926;28;46430;-86
2022/10/18 07:22:05;;;;;;;8.50;4.13;;;16.70;61.80;;;;;;4984609;28;49499;-85
2022/10/18 07:24:31;;;;;;;8.77;3.77;;;16.90;61.70;;;;;;4966863;28;46369;-85
2022/10/18 07:26:57;;;;;;;13.47;4.03;;;17.00;61.40;;;;;;4986530;28;46328;-86
2022/10/18 07:29:22;;;;;;;13.30;3.90;;;17.10;61.20;;;;;;4970357;28;47020;-87
2022/10/18 07:31:48;;;;;;;13.13;4.73;;;17.10;61.10;;;;;;4984607;28;47260;-85
2022/10/18 07:34:13;;;;;;;8.47;4.63;;;17.10;61.20;;;;;;4982395;28;46573;-86
2022/10/18 07:36:40;;;;;;;10.03;4.10;;;17.20;60.10;;;;;;4985092;28;46895;-86
2022/10/18 07:39:05;;;;;;;8.07;4.13;;;17.10;61.10;;;;;;4985147;28;45989;-87
2022/10/18 07:41:32;;;;;;;12.20;4.50;;;17.20;61.00;;;;;;4964883;28;48152;-86
2022/10/18 07:43:59;;;;;;;12.30;4.47;;;17.30;60.90;;;;;;4965470;28;46322;-85
2022/10/18 07:46:25;;;;;;;15.53;4.57;;;17.40;60.60;;;;;;4967261;28;46468;-85
2022/10/18 07:48:51;;;;;;;8.80;4.23;;;17.60;60.10;;;;;;4967275;28;46722;-86
2022/10/18 07:51:19;;;;;;;10.20;3.90;;;17.70;59.70;;;;;;4966143;28;48246;-85
2022/10/18 07:53:45;;;;;;;13.83;3.73;;;17.90;59.60;;;;;;4984198;28;46124;-85
2022/10/18 07:56:15;;;;;;;7.77;4.10;;;17.80;59.20;;;;;;4983132;28;47049;-85
2022/10/18 07:58:42;;;;;;;7.80;4.17;;;17.80;57.90;;;;;;4965086;28;46732;-86
2022/10/18 08:01:08;;;;;;;10.73;4.17;;;17.80;59.30;;;;;;4984437;28;46658;-85
2022/10/18 08:03:34;;;;;;;11.43;4.43;;;17.70;59.20;;;;;;4985120;28;46166;-85
2022/10/18 08:06:00;;;;;;;8.10;3.77;;;17.80;60.80;;;;;;4985858;28;46474;-84
2022/10/18 08:08:27;;;;;;;10.93;4.83;;;17.80;59.40;;;;;;4958523;28;46518;-84
2022/10/18 08:10:53;;;;;;;13.93;4.60;;;17.90;58.90;;;;;;4965933;28;49212;-85
2022/10/18 08:13:18;;;;;;;10.03;4.53;;;17.90;59.00;;;;;;4964422;28;47155;-87
2022/10/18 08:15:44;;;;;;;7.20;4.40;;;17.80;58.80;;;;;;4967011;28;46461;-86
2022/10/18 08:18:10;;;;;;;8.43;4.90;;;17.70;59.20;;;;;;4988573;28;46373;-86
2022/10/18 08:20:35;;;;;;;11.33;4.63;;;17.60;59.40;;;;;;4966575;28;48190;-86
2022/10/18 08:23:02;;;;;;;9.97;4.60;;;17.50;59.30;;;;;;4965267;28;46523;-86
2022/10/18 08:25:29;;;;;;;8.90;4.50;;;17.50;58.90;;;;;;4965095;28;46401;-85
2022/10/18 08:27:55;;;;;;;11.20;4.40;;;17.50;59.00;;;;;;4966443;28;46449;-85
2022/10/18 08:30:22;;;;;;;20.97;4.50;;;17.40;59.20;;;;;;4965354;28;48871;-85
2022/10/18 08:32:47;;;;;;;12.37;4.20;;;17.40;59.10;;;;;;4966627;28;46432;-86
2022/10/18 08:35:13;;;;;;;7.77;4.90;;;17.40;59.30;;;;;;4967249;28;46545;-86
2022/10/18 08:37:39;;;;;;;11.77;5.70;;;17.40;59.60;;;;;;4985781;28;46425;-85
2022/10/18 08:40:05;;;;;;;6.03;3.83;;;17.50;59.60;;;;;;4966575;28;48199;-85
2022/10/18 08:42:53;;;;;;;11.70;4.73;;;17.40;59.40;;;;;;4967989;28;46683;-86
2022/10/18 08:45:19;;;;;;;6.07;4.20;;;17.30;59.60;;;;;;4965477;28;46427;-86
2022/10/18 08:47:48;;;;;;;7.10;3.90;;;17.30;59.70;;;;;;4980692;28;46373;-85
2022/10/18 08:50:20;;;;;;;8.07;4.63;;;17.30;59.60;;;;;;4981709;28;46355;-85
2022/10/18 08:53:04;;;;;;;8.60;4.60;;;17.40;59.70;;;;;;4981706;28;46280;-86
2022/10/18 08:55:47;;;;;;;9.33;4.77;;;17.50;59.80;;;;;;4965515;28;46367;-86
2022/10/18 08:58:20;;;;;;;6.70;4.17;;;17.70;59.40;;;;;;4966273;28;46358;-85
2022/10/18 09:01:18;;;;;;;7.50;4.30;;;17.80;59.20;;;;;;4980902;28;47821;-85
2022/10/18 09:04:21;;;;;;;9.50;4.83;;;17.90;58.90;;;;;;4972533;28;47071;-85
2022/10/18 09:06:58;;;;;;;10.00;4.13;;;18.10;58.10;;;;;;4989538;28;46648;-86
2022/10/18 09:09:57;;;;;;;13.87;4.20;;;18.10;59.20;;;;;;4977864;28;47025;-86
2022/10/18 09:12:47;;;;;;;6.73;4.00;;;18.30;59.30;;;;;;4991364;28;46746;-86
2022/10/18 09:15:15;;;;;;;12.83;4.00;;;18.40;59.20;;;;;;4976022;28;45830;-86
2022/10/18 09:17:59;;;;;;;5.70;4.07;;;18.50;58.90;;;;;;4972654;28;46788;-86
2022/10/18 09:20:30;;;;;;;9.83;5.20;;;18.60;58.20;;;;;;4992443;28;46737;-87
2022/10/18 09:23:15;;;;;;;10.57;4.67;;;18.70;57.90;;;;;;4974158;28;48404;-86
2022/10/18 09:25:46;;;;;;;8.80;4.07;;;18.80;57.70;;;;;;4972675;28;46821;-85
2022/10/18 09:28:50;;;;;;;11.23;4.43;;;18.80;57.30;;;;;;4974564;28;46403;-85
2022/10/18 09:31:23;;;;;;;5.83;3.80;;;18.90;56.90;;;;;;4992657;28;46427;-87
2022/10/18 09:33:54;;;;;;;8.03;3.90;;;19.10;56.80;;;;;;4988041;28;46681;-85
2022/10/18 09:36:24;;;;;;;14.33;4.73;;;19.40;56.70;;;;;;4992721;28;46374;-86
2022/10/18 09:38:57;;;;;;;15.57;4.47;;;19.60;56.10;;;;;;4990659;28;46303;-86
2022/10/18 09:41:28;;;;;;;7.60;4.50;;;19.60;55.40;;;;;;4990701;28;46640;-86
2022/10/18 09:44:18;;;;;;;11.50;4.63;;;19.60;54.60;;;;;;4988696;28;47530;-85
2022/10/18 09:46:58;;;;;;;10.03;4.77;;;19.70;53.70;;;;;;4991714;28;46593;-85
2022/10/18 09:49:29;;;;;;;9.23;4.77;;;19.60;54.80;;;;;;4972237;28;46466;-85
2022/10/18 09:51:57;;;;;;;14.07;4.50;;;19.70;54.60;;;;;;4974281;28;46342;-85
2022/10/18 09:54:38;;;;;;;9.93;4.80;;;19.80;54.50;;;;;;4976711;28;48279;-84
2022/10/18 09:57:12;;;;;;;7.10;4.77;;;19.90;54.10;;;;;;4974549;28;46323;-86
2022/10/18 09:59:48;;;;;;;11.70;4.30;;;19.90;54.30;;;;;;4992469;28;46471;-86
2022/10/18 10:02:17;;;;;;;9.73;4.73;;;19.90;53.90;;;;;;4987586;28;46369;-86
2022/10/18 10:04:42;;;;;;;10.80;5.33;;;19.90;54.20;;;;;;4991507;28;47003;-86
2022/10/18 10:07:13;;;;;;;14.60;5.40;;;20.00;54.40;;;;;;4972556;28;46760;-86
2022/10/18 10:10:02;;;;;;;9.13;4.20;;;20.00;53.80;;;;;;4990226;28;45813;-85
2022/10/18 10:12:34;;;;;;;9.00;4.13;;;20.00;53.80;;;;;;4967517;28;46521;-86
2022/10/18 10:15:07;;;;;;;9.10;4.73;;;20.10;53.80;;;;;;4968909;28;48328;-85
2022/10/18 10:17:33;;;;;;;12.53;3.87;;;20.40;52.20;;;;;;4985595;28;46413;-86
2022/10/18 10:20:14;;;;;;;10.73;4.30;;;20.40;53.30;;;;;;4988702;28;46288;-86
2022/10/18 10:22:41;;;;;;;8.13;4.13;;;20.40;52.50;;;;;;4987361;28;46474;-86
2022/10/18 10:25:31;;;;;;;8.70;4.40;;;20.40;51.80;;;;;;4967341;28;47973;-86
2022/10/18 10:28:03;;;;;;;7.37;3.63;;;20.40;50.70;;;;;;4966855;28;46424;-86
2022/10/18 10:30:36;;;;;;;9.57;4.30;;;20.50;51.70;;;;;;4984103;28;46313;-86
2022/10/18 10:33:02;;;;;;;8.83;4.23;;;20.70;51.70;;;;;;4966185;28;46714;-86
2022/10/18 10:35:31;;;;;;;9.77;4.40;;;20.80;51.00;;;;;;4967153;28;48289;-86
2022/10/18 10:37:57;;;;;;;7.53;3.80;;;20.80;50.70;;;;;;4965365;28;46474;-86
2022/10/18 10:40:24;;;;;;;12.80;3.80;;;20.70;50.60;;;;;;4968314;28;46275;-86
2022/10/18 10:42:54;;;;;;;8.90;4.17;;;20.70;50.40;;;;;;4988374;28;46448;-85
2022/10/18 10:45:22;;;;;;;8.90;4.37;;;20.80;50.30;;;;;;4985620;28;47133;-86
2022/10/18 10:47:48;;;;;;;11.83;3.90;;;20.90;49.60;;;;;;4984809;28;46417;-86
2022/10/18 10:50:25;;;;;;;7.60;3.40;;;21.00;48.90;;;;;;4990795;28;46337;-86
2022/10/18 10:52:52;;;;;;;8.73;3.67;;;21.00;48.60;;;;;;4969929;28;46949;-86
2022/10/18 10:55:26;;;;;;;7.60;3.37;;;21.10;48.80;;;;;;4988616;28;48257;-87
2022/10/18 10:57:53;;;;;;;7.00;3.80;;;21.30;48.80;;;;;;4984042;28;45869;-86
2022/10/18 11:00:34;;;;;;;9.70;3.50;;;21.50;49.00;;;;;;4970223;28;45880;-85
2022/10/18 11:03:10;;;;;;;6.70;3.70;;;21.40;48.50;;;;;;4987113;28;46455;-85
2022/10/18 11:05:52;;;;;;;4.90;3.07;;;21.40;48.00;;;;;;4983762;28;48090;-85
2022/10/18 11:08:34;;;;;;;16.53;3.87;;;21.40;47.70;;;;;;4982969;28;45842;-85
2022/10/18 11:11:26;;;;;;;9.97;3.13;;;21.60;47.60;;;;;;4963537;28;46461;-86
2022/10/18 11:14:04;;;;;;;6.00;3.10;;;21.50;47.30;;;;;;4985406;28;45796;-86
2022/10/18 11:16:45;;;;;;;5.03;3.40;;;21.50;47.60;;;;;;4967205;28;48263;-85
2022/10/18 11:19:39;;;;;;;5.30;3.00;;;21.50;47.10;;;;;;4967479;28;46350;-85
2022/10/18 11:22:12;;;;;;;10.30;3.20;;;21.40;47.40;;;;;;4965121;28;46421;-85
2022/10/18 11:24:38;;;;;;;10.10;4.20;;;21.40;47.00;;;;;;4985532;28;46383;-86
2022/10/18 11:27:23;;;;;;;5.03;3.00;;;21.50;46.60;;;;;;4968427;28;48830;-85
2022/10/18 11:30:11;;;;;;;8.37;4.17;;;21.40;46.40;;;;;;4984953;28;46393;-85
2022/10/18 11:33:05;;;;;;;6.33;3.00;;;21.40;46.20;;;;;;4974741;28;46425;-85
2022/10/18 11:35:51;;;;;;;8.63;3.70;;;21.30;44.70;;;;;;4984086;28;46539;-84
2022/10/18 11:38:23;;;;;;;5.47;3.43;;;21.30;46.60;;;;;;4981666;28;48302;-84
2022/10/18 11:41:02;;;;;;;11.10;3.83;;;21.40;45.70;;;;;;4984314;28;46403;-85
2022/10/18 11:43:41;;;;;;;10.87;3.20;;;21.50;43.80;;;;;;4981185;28;46442;-84
2022/10/18 11:46:32;;;;;;;7.17;3.27;;;21.60;45.00;;;;;;4970256;28;45815;-85
2022/10/18 11:49:37;;;;;;;6.83;3.93;;;21.60;45.10;;;;;;4981513;28;46654;-86
2022/10/18 11:52:19;;;;;;;7.03;3.00;;;21.60;45.20;;;;;;4966529;28;46526;-86
2022/10/18 11:55:00;;;;;;;9.00;3.93;;;21.50;44.80;;;;;;4965773;28;46453;-86
2022/10/18 11:57:39;;;;;;;13.43;3.10;;;21.60;45.00;;;;;;4983939;28;46470;-85
2022/10/18 12:00:52;;;;;;;8.43;3.03;;;21.60;43.90;;;;;;4967042;28;48211;-86
2022/10/18 12:03:37;;;;;;;6.50;3.13;;;21.50;43.90;;;;;;4920749;28;46536;-86
2022/10/18 12:06:11;;;;;;;6.20;3.20;;;21.50;43.70;;;;;;4968244;28;46358;-86
2022/10/18 12:08:42;;;;;;;5.57;3.20;;;21.50;44.50;;;;;;4964642;28;45894;-86
2022/10/18 12:11:14;;;;;;;10.53;3.67;;;21.60;43.70;;;;;;4984569;28;46546;-86
2022/10/18 12:13:55;;;;;;;14.90;3.70;;;21.70;43.60;;;;;;4963807;28;46322;-87
2022/10/18 12:16:23;;;;;;;6.67;3.17;;;21.70;43.90;;;;;;4970105;28;46444;-86
2022/10/18 12:18:56;;;;;;;5.63;3.20;;;21.90;42.70;;;;;;4984747;28;46484;-86
2022/10/18 12:21:24;;;;;;;6.40;3.23;;;22.10;43.20;;;;;;4987678;28;46649;-86
2022/10/18 12:24:04;;;;;;;5.23;3.10;;;22.20;43.30;;;;;;4969175;28;46332;-87
2022/10/18 12:26:32;;;;;;;6.43;3.13;;;22.20;42.30;;;;;;4983540;28;46513;-85
2022/10/18 12:29:07;;;;;;;6.07;2.97;;;22.10;41.60;;;;;;4965484;28;46363;-86
2022/10/18 12:31:37;;;;;;;13.03;3.90;;;22.00;42.60;;;;;;4964958;28;48458;-86
2022/10/18 12:34:32;;;;;;;9.63;3.70;;;22.00;42.50;;;;;;4964454;28;46351;-86
2022/10/18 12:37:26;;;;;;;12.17;3.53;;;22.00;42.60;;;;;;4983053;28;45836;-86
2022/10/18 12:40:16;;;;;;;7.63;3.30;;;21.90;42.00;;;;;;4965543;28;46509;-86
2022/10/18 12:42:47;;;;;;;6.63;3.73;;;21.80;42.30;;;;;;4966707;28;49533;-86
2022/10/18 12:45:29;;;;;;;10.17;3.60;;;21.90;42.30;;;;;;4982398;28;46409;-86
2022/10/18 12:48:05;;;;;;;5.00;3.00;;;22.10;41.90;;;;;;4966992;28;46701;-85
2022/10/18 12:50:38;;;;;;;10.27;4.43;;;22.10;41.60;;;;;;4966676;28;45849;-85
2022/10/18 12:53:17;;;;;;;7.97;3.70;;;21.90;41.30;;;;;;4967121;28;48397;-86
2022/10/18 12:55:45;;;;;;;6.40;2.80;;;21.90;41.60;;;;;;4983714;28;46478;-87
2022/10/18 12:58:14;;;;;;;10.63;3.10;;;21.90;40.80;;;;;;4983670;28;46552;-86